Time;durP1;ratioP1;P1;durP2;ratioP2;P2;SDS_P1;SDS_P2;PMS_P1;PMS_P2;Temp;Humidity;BMP_temperature;BMP_pressure;BME280_temperature;BME280_humidity;BME280_pressure;Samples;Min_cycle;Max_cycle;Signal;HPM_P1;HPM_P2
2023/07/21 00:00:27;;;;;;;;;;;25.80;81.10;;;;;;5094171;28;19908;-62
2023/07/21 00:02:53;;;;;;;;;;;25.80;81.10;;;;;;5094030;28;20333;-63
2023/07/21 00:05:18;;;;;;;;;;;25.80;81.10;;;;;;5076194;28;19908;-62
2023/07/21 00:07:44;;;;;;;;;;;25.90;81.20;;;;;;5094296;28;20348;-61
2023/07/21 00:10:10;;;;;;;;;;;25.80;81.20;;;;;;5094017;28;20327;-61
2023/07/21 00:12:37;;;;;;;;;;;25.90;81.20;;;;;;5093868;28;19908;-62
2023/07/21 00:15:04;;;;;;;;;;;25.80;81.10;;;;;;5094192;28;19912;-62
2023/07/21 00:17:30;;;;;;;;;;;25.80;81.10;;;;;;5093675;28;20267;-62
2023/07/21 00:20:04;;;;;;;;;;;25.80;81.20;;;;;;5094213;28;19915;-62
2023/07/21 00:22:31;;;;;;;;;;;25.80;81.20;;;;;;5094235;28;20270;-62
2023/07/21 00:24:57;;;;;;;;;;;25.80;81.20;;;;;;5094033;28;19916;-62
2023/07/21 00:27:23;;;;;;;;;;;25.80;81.20;;;;;;5094099;28;20266;-62
2023/07/21 00:29:49;;;;;;;;;;;25.80;81.20;;;;;;5093761;28;20002;-63
2023/07/21 00:32:18;;;;;;;;;;;25.80;81.20;;;;;;5093709;28;20252;-62
2023/07/21 00:34:44;;;;;;;;;;;25.80;81.20;;;;;;5093986;28;19909;-62
2023/07/21 00:37:10;;;;;;;;;;;25.80;81.20;;;;;;5075895;28;19919;-62
2023/07/21 00:39:36;;;;;;;;;;;25.80;81.20;;;;;;5093970;28;19988;-62
2023/07/21 00:42:04;;;;;;;;;;;25.80;81.20;;;;;;5075807;28;20026;-62
2023/07/21 00:44:30;;;;;;;;;;;25.80;81.20;;;;;;5093548;28;20335;-62
2023/07/21 00:46:55;;;;;;;;;;;25.80;81.20;;;;;;5075911;28;19913;-62
2023/07/21 00:49:21;;;;;;;;;;;25.80;81.20;;;;;;5075662;28;19909;-62
2023/07/21 00:51:46;;;;;;;;;;;25.80;81.30;;;;;;5094012;28;19909;-63
2023/07/21 00:54:12;;;;;;;;;;;25.80;81.30;;;;;;5093919;28;20006;-62
2023/07/21 00:56:37;;;;;;;;;;;25.80;81.30;;;;;;5093922;28;19915;-61
2023/07/21 00:59:03;;;;;;;;;;;25.80;81.30;;;;;;5094173;28;19908;-61
2023/07/21 01:01:29;;;;;;;;;;;25.80;81.30;;;;;;5093798;28;20053;-63
2023/07/21 01:03:55;;;;;;;;;;;25.80;81.30;;;;;;5075490;28;19912;-61
2023/07/21 01:06:27;;;;;;;;;;;25.80;81.30;;;;;;5075295;28;19973;-62
2023/07/21 01:08:56;;;;;;;;;;;25.80;81.30;;;;;;5093812;28;19936;-61
2023/07/21 01:11:21;;;;;;;;;;;25.80;81.30;;;;;;5093429;28;20301;-62
2023/07/21 01:13:47;;;;;;;;;;;25.80;81.30;;;;;;5093499;28;19912;-61
2023/07/21 01:16:13;;;;;;;;;;;25.80;81.30;;;;;;5093958;28;19915;-62
2023/07/21 01:18:39;;;;;;;;;;;25.80;81.30;;;;;;5075398;28;19940;-62
2023/07/21 01:21:05;;;;;;;;;;;25.80;81.40;;;;;;5093370;28;20018;-61
2023/07/21 01:23:37;;;;;;;;;;;25.80;81.40;;;;;;5093323;28;20019;-62
2023/07/21 01:26:02;;;;;;;;;;;25.80;81.40;;;;;;5075629;28;19939;-61
2023/07/21 01:28:28;;;;;;;;;;;25.80;81.30;;;;;;5094674;28;19908;-61
2023/07/21 01:30:55;;;;;;;;;;;25.80;81.40;;;;;;5097298;28;20304;-61
2023/07/21 01:33:21;;;;;;;;;;;25.80;81.40;;;;;;5097260;28;19908;-61
2023/07/21 01:35:48;;;;;;;;;;;25.70;81.30;;;;;;5096838;28;20002;-61
2023/07/21 01:38:14;;;;;;;;;;;25.80;81.40;;;;;;5097630;28;19915;-61
2023/07/21 01:40:40;;;;;;;;;;;25.70;81.40;;;;;;5096812;28;19995;-62
2023/07/21 01:43:07;;;;;;;;;;;25.70;81.40;;;;;;5096746;28;20065;-62
2023/07/21 01:45:33;;;;;;;;;;;25.70;81.40;;;;;;5096616;28;19931;-61
2023/07/21 01:47:59;;;;;;;;;;;25.70;81.40;;;;;;5096949;28;20001;-62
2023/07/21 01:50:25;;;;;;;;;;;25.80;81.50;;;;;;5096772;28;19912;-62
2023/07/21 01:52:51;;;;;;;;;;;25.80;81.50;;;;;;5096888;28;19974;-61
2023/07/21 01:55:16;;;;;;;;;;;25.70;81.40;;;;;;5096857;28;19908;-62
2023/07/21 01:57:45;;;;;;;;;;;25.70;81.40;;;;;;5078699;28;19912;-61
2023/07/21 02:00:13;;;;;;;;;;;25.80;81.50;;;;;;5078660;28;19908;-61
2023/07/21 02:02:40;;;;;;;;;;;25.70;81.50;;;;;;5096853;28;19908;-62
2023/07/21 02:05:05;;;;;;;;;;;25.70;81.50;;;;;;5078387;28;19919;-61
2023/07/21 02:07:31;;;;;;;;;;;25.70;81.50;;;;;;5078397;28;20270;-61
2023/07/21 02:09:57;;;;;;;;;;;25.70;81.50;;;;;;5096324;28;20420;-61
2023/07/21 02:12:23;;;;;;;;;;;25.70;81.50;;;;;;5096274;28;19943;-61
2023/07/21 02:14:49;;;;;;;;;;;25.70;81.60;;;;;;5096158;28;19987;-61
2023/07/21 02:17:14;;;;;;;;;;;25.70;81.60;;;;;;5096286;28;19908;-61
2023/07/21 02:19:40;;;;;;;;;;;25.70;81.60;;;;;;5096435;28;19909;-61
2023/07/21 02:22:05;;;;;;;;;;;25.70;81.60;;;;;;5096299;28;20002;-61
2023/07/21 02:24:31;;;;;;;;;;;25.70;81.60;;;;;;5095888;28;19969;-61
2023/07/21 02:26:59;;;;;;;;;;;25.70;81.60;;;;;;5096252;28;19908;-61
2023/07/21 02:29:24;;;;;;;;;;;25.70;81.60;;;;;;5095972;28;19908;-61
2023/07/21 02:31:50;;;;;;;;;;;25.70;81.60;;;;;;5096148;28;19908;-61
2023/07/21 02:34:15;;;;;;;;;;;25.70;81.60;;;;;;5095829;28;19954;-62
2023/07/21 02:36:41;;;;;;;;;;;25.70;81.70;;;;;;5095834;28;19908;-62
2023/07/21 02:39:07;;;;;;;;;;;25.70;81.70;;;;;;5096010;28;19908;-62
2023/07/21 02:41:32;;;;;;;;;;;25.70;81.70;;;;;;5094978;28;20397;-62
2023/07/21 02:43:59;;;;;;;;;;;25.70;81.70;;;;;;5095555;28;20019;-62
2023/07/21 02:46:25;;;;;;;;;;;25.70;81.70;;;;;;5077481;28;19929;-62
2023/07/21 02:48:50;;;;;;;;;;;25.70;81.80;;;;;;5096058;28;20382;-62
2023/07/21 02:51:16;;;;;;;;;;;25.70;81.80;;;;;;5095379;28;19908;-62
2023/07/21 02:53:42;;;;;;;;;;;25.70;81.80;;;;;;5095679;28;19913;-62
2023/07/21 02:56:07;;;;;;;;;;;25.70;81.80;;;;;;5095362;28;19973;-62
2023/07/21 02:58:33;;;;;;;;;;;25.70;81.90;;;;;;5095671;28;19908;-63
2023/07/21 03:00:59;;;;;;;;;;;25.70;82.00;;;;;;5095323;28;19947;-62
2023/07/21 03:03:25;;;;;;;;;;;25.70;82.00;;;;;;5095400;28;19916;-62
2023/07/21 03:05:51;;;;;;;;;;;25.70;82.00;;;;;;5095169;28;19908;-62
2023/07/21 03:08:19;;;;;;;;;;;25.70;82.00;;;;;;5095422;28;20017;-62
2023/07/21 03:10:45;;;;;;;;;;;25.70;82.00;;;;;;5095343;28;19961;-62
2023/07/21 03:13:12;;;;;;;;;;;25.70;82.00;;;;;;5095031;28;19908;-62
2023/07/21 03:15:38;;;;;;;;;;;25.70;82.00;;;;;;5077071;28;19954;-62
2023/07/21 03:18:04;;;;;;;;;;;25.70;82.00;;;;;;5095250;28;19908;-62
2023/07/21 03:20:30;;;;;;;;;;;25.70;82.10;;;;;;5095143;28;20369;-62
2023/07/21 03:22:55;;;;;;;;;;;25.70;82.10;;;;;;5094965;28;19908;-62
2023/07/21 03:25:21;;;;;;;;;;;25.70;82.10;;;;;;5095045;28;20000;-62
2023/07/21 03:27:46;;;;;;;;;;;25.70;82.20;;;;;;5094899;28;19908;-62
2023/07/21 03:30:13;;;;;;;;;;;25.70;82.20;;;;;;5094611;28;19919;-62
2023/07/21 03:32:39;;;;;;;;;;;25.70;82.20;;;;;;5094579;28;19938;-62
2023/07/21 03:35:05;;;;;;;;;;;25.70;82.20;;;;;;5094590;28;19915;-62
2023/07/21 03:37:34;;;;;;;;;;;25.70;82.20;;;;;;5076646;28;19908;-63
2023/07/21 03:40:06;;;;;;;;;;;25.70;82.30;;;;;;5094524;28;19912;-62
2023/07/21 03:42:32;;;;;;;;;;;25.70;82.30;;;;;;5094370;28;19908;-62
2023/07/21 03:44:57;;;;;;;;;;;25.70;82.30;;;;;;5075930;28;19980;-62
2023/07/21 03:47:23;;;;;;;;;;;25.60;82.30;;;;;;5094636;28;20000;-63
2023/07/21 03:49:50;;;;;;;;;;;25.70;82.40;;;;;;5094547;28;19915;-63
2023/07/21 03:52:16;;;;;;;;;;;25.70;82.40;;;;;;5094448;28;19908;-63
2023/07/21 03:54:41;;;;;;;;;;;25.60;82.30;;;;;;5094496;28;19915;-62
2023/07/21 03:57:07;;;;;;;;;;;25.70;82.40;;;;;;5094478;28;20378;-62
2023/07/21 03:59:32;;;;;;;;;;;25.70;82.50;;;;;;5097372;28;19999;-62
2023/07/21 04:01:58;;;;;;;;;;;25.70;82.50;;;;;;5082890;28;19908;-62
2023/07/21 04:04:23;;;;;;;;;;;25.60;82.50;;;;;;5095756;28;20327;-62
2023/07/21 04:06:49;;;;;;;;;;;25.70;82.50;;;;;;5096264;28;19919;-62
2023/07/21 04:09:14;;;;;;;;;;;25.70;82.60;;;;;;5113094;28;19907;-62
2023/07/21 04:11:40;;;;;;;;;;;25.70;82.60;;;;;;5092325;28;19954;-62
2023/07/21 04:14:05;;;;;;;;;;;25.70;83.20;;;;;;5114611;28;20463;-62
2023/07/21 04:16:31;;;;;;;;;;;25.60;82.70;;;;;;5114278;28;20339;-62
2023/07/21 04:18:56;;;;;;;;;;;25.60;82.70;;;;;;5096852;28;19912;-62
2023/07/21 04:21:22;;;;;;;;;;;25.60;82.80;;;;;;5092939;28;20002;-62
2023/07/21 04:23:48;;;;;;;;;;;25.70;82.90;;;;;;5093679;28;20281;-62
2023/07/21 04:26:15;;;;;;;;;;;25.60;82.80;;;;;;5111277;28;19916;-62
2023/07/21 04:28:41;;;;;;;;;;;25.60;82.80;;;;;;5094077;28;19930;-62
2023/07/21 04:31:08;;;;;;;;;;;25.60;82.90;;;;;;5099821;28;19998;-62
2023/07/21 04:33:35;;;;;;;;;;;25.60;82.90;;;;;;5111299;28;19912;-62
2023/07/21 04:36:01;;;;;;;;;;;25.60;82.90;;;;;;5104080;28;20290;-63
2023/07/21 04:38:26;;;;;;;;;;;25.70;83.00;;;;;;5075783;28;20006;-62
2023/07/21 04:40:52;;;;;;;;;;;25.60;83.00;;;;;;5093740;28;20330;-62
2023/07/21 04:43:17;;;;;;;;;;;25.60;83.00;;;;;;5094123;28;19923;-62
2023/07/21 04:45:43;;;;;;;;;;;25.60;83.00;;;;;;5093871;28;20248;-62
2023/07/21 04:48:08;;;;;;;;;;;25.60;83.00;;;;;;5093393;28;19912;-62
2023/07/21 04:50:34;;;;;;;;;;;25.60;83.10;;;;;;5093845;28;19912;-62
2023/07/21 04:53:01;;;;;;;;;;;25.60;83.10;;;;;;5093934;28;20395;-62
2023/07/21 04:55:27;;;;;;;;;;;25.60;83.40;;;;;;5095753;28;20365;-61
2023/07/21 04:57:54;;;;;;;;;;;25.60;83.10;;;;;;5112074;28;22521;-61
2023/07/21 05:00:21;;;;;;;;;;;25.60;83.20;;;;;;5111971;28;19973;-64
2023/07/21 05:02:47;;;;;;;;;;;25.60;83.30;;;;;;5112253;28;20324;-63
2023/07/21 05:05:14;;;;;;;;;;;25.50;83.40;;;;;;5104395;28;19927;-63
2023/07/21 05:07:40;;;;;;;;;;;25.60;83.30;;;;;;5079330;28;19919;-62
2023/07/21 05:10:05;;;;;;;;;;;25.60;83.50;;;;;;5097199;28;20301;-62
2023/07/21 05:12:31;;;;;;;;;;;25.60;83.40;;;;;;5097027;28;19908;-63
2023/07/21 05:14:57;;;;;;;;;;;25.60;83.50;;;;;;5097122;28;19912;-63
2023/07/21 05:17:23;;;;;;;;;;;25.60;83.50;;;;;;5096769;28;19912;-62
2023/07/21 05:19:48;;;;;;;;;;;25.60;83.40;;;;;;5096812;28;19916;-63
2023/07/21 05:22:14;;;;;;;;;;;25.60;83.40;;;;;;5096756;28;20418;-63
2023/07/21 05:24:39;;;;;;;;;;;25.60;83.40;;;;;;5096784;28;19919;-63
2023/07/21 05:27:05;;;;;;;;;;;25.60;83.30;;;;;;5096760;28;19918;-63
2023/07/21 05:29:32;;;;;;;;;;;25.60;83.30;;;;;;5096864;28;19912;-63
2023/07/21 05:31:57;;;;;;;;;;;25.60;83.30;;;;;;5097119;28;19927;-63
2023/07/21 05:34:23;;;;;;;;;;;25.60;83.30;;;;;;5097374;28;19908;-63
2023/07/21 05:36:48;;;;;;;;;;;25.60;83.30;;;;;;5096807;28;19954;-63
2023/07/21 05:39:14;;;;;;;;;;;25.60;83.80;;;;;;5096565;28;19909;-62
2023/07/21 05:41:39;;;;;;;;;;;25.60;83.30;;;;;;5096910;28;19962;-62
2023/07/21 05:44:05;;;;;;;;;;;25.60;83.30;;;;;;5096713;28;20319;-63
2023/07/21 05:46:31;;;;;;;;;;;25.60;83.40;;;;;;5096059;28;19943;-64
2023/07/21 05:48:57;;;;;;;;;;;25.60;83.30;;;;;;5096791;28;19920;-63
2023/07/21 05:51:22;;;;;;;;;;;25.50;83.30;;;;;;5096740;28;20300;-63
2023/07/21 05:53:48;;;;;;;;;;;25.60;83.40;;;;;;5096333;28;20359;-64
2023/07/21 05:56:13;;;;;;;;;;;25.50;83.30;;;;;;5096490;28;19908;-62
2023/07/21 05:58:40;;;;;;;;;;;25.50;83.30;;;;;;5078175;28;19908;-63
2023/07/21 06:01:05;;;;;;;;;;;25.50;83.30;;;;;;5096140;28;20011;-63
2023/07/21 06:03:31;;;;;;;;;;;25.50;83.30;;;;;;5096419;28;20007;-63
2023/07/21 06:05:57;;;;;;;;;;;25.50;83.30;;;;;;5096055;28;19908;-63
2023/07/21 06:08:24;;;;;;;;;;;25.50;83.30;;;;;;5096287;28;19908;-63
2023/07/21 06:10:57;;;;;;;;;;;25.50;83.40;;;;;;5096240;28;19955;-63
2023/07/21 06:13:23;;;;;;;;;;;25.50;83.40;;;;;;5096036;28;19955;-62
2023/07/21 06:15:48;;;;;;;;;;;25.50;83.40;;;;;;5095125;28;19962;-63
2023/07/21 06:18:14;;;;;;;;;;;25.50;83.50;;;;;;5095931;28;19912;-63
2023/07/21 06:20:39;;;;;;;;;;;25.50;83.50;;;;;;5095961;28;20374;-63
2023/07/21 06:23:04;;;;;;;;;;;25.50;83.50;;;;;;5096086;28;19914;-63
2023/07/21 06:25:30;;;;;;;;;;;25.50;83.60;;;;;;5077616;28;19982;-63
2023/07/21 06:27:57;;;;;;;;;;;25.50;83.60;;;;;;5093626;28;19934;-62
2023/07/21 06:30:22;;;;;;;;;;;25.50;83.60;;;;;;5097378;28;19920;-62
2023/07/21 06:32:48;;;;;;;;;;;25.50;83.60;;;;;;5106391;28;20041;-63
2023/07/21 06:35:13;;;;;;;;;;;25.50;83.60;;;;;;5095241;28;19908;-63
2023/07/21 06:37:39;;;;;;;;;;;25.50;83.60;;;;;;5095395;28;19919;-62
2023/07/21 06:40:05;;;;;;;;;;;25.50;83.60;;;;;;5095472;28;20306;-63
2023/07/21 06:42:31;;;;;;;;;;;25.40;83.60;;;;;;5096054;28;19914;-63
2023/07/21 06:44:56;;;;;;;;;;;25.50;83.70;;;;;;5094554;28;19920;-63
2023/07/21 06:47:23;;;;;;;;;;;25.50;83.70;;;;;;5106470;28;20019;-63
2023/07/21 06:49:49;;;;;;;;;;;25.40;83.70;;;;;;5095342;28;20339;-63
2023/07/21 06:52:15;;;;;;;;;;;25.50;83.70;;;;;;5095252;28;20355;-63
2023/07/21 06:54:40;;;;;;;;;;;25.40;83.70;;;;;;5095115;28;19954;-63
2023/07/21 06:57:06;;;;;;;;;;;25.40;83.70;;;;;;5095058;28;20330;-63
2023/07/21 06:59:32;;;;;;;;;;;25.50;83.70;;;;;;5098607;28;20113;-63
2023/07/21 07:01:58;;;;;;;;;;;25.50;83.70;;;;;;5115147;28;19907;-64
2023/07/21 07:04:25;;;;;;;;;;;25.50;83.70;;;;;;5110654;28;19958;-63
2023/07/21 07:06:52;;;;;;;;;;;25.40;83.70;;;;;;5114252;28;19943;-62
2023/07/21 07:09:17;;;;;;;;;;;25.40;83.70;;;;;;5093741;28;20239;-62
2023/07/21 07:11:43;;;;;;;;;;;25.40;81.10;;;;;;5095104;28;19919;-62
2023/07/21 07:14:08;;;;;;;;;;;25.40;80.50;;;;;;5072921;28;20357;-62
2023/07/21 07:16:34;;;;;;;;;;;25.40;81.10;;;;;;5092971;28;19930;-63
2023/07/21 07:18:59;;;;;;;;;;;25.40;82.00;;;;;;5111935;28;20006;-63
2023/07/21 07:21:25;;;;;;;;;;;25.40;82.50;;;;;;5095693;28;20366;-63
2023/07/21 07:23:50;;;;;;;;;;;25.40;82.70;;;;;;5100252;28;20001;-64
2023/07/21 07:26:15;;;;;;;;;;;25.40;82.80;;;;;;5110461;28;20290;-63
2023/07/21 07:28:41;;;;;;;;;;;25.40;83.10;;;;;;5081876;28;19957;-66
2023/07/21 07:31:06;;;;;;;;;;;25.40;83.60;;;;;;5094689;28;19912;-66
2023/07/21 07:33:32;;;;;;;;;;;25.30;83.80;;;;;;5095230;28;20108;-66
2023/07/21 07:35:59;;;;;;;;;;;25.40;83.90;;;;;;5107267;28;19908;-66
2023/07/21 07:38:27;;;;;;;;;;;25.40;84.00;;;;;;5076401;28;19912;-65
2023/07/21 07:40:52;;;;;;;;;;;25.40;84.10;;;;;;5103794;28;19912;-65
2023/07/21 07:43:18;;;;;;;;;;;25.30;84.00;;;;;;5096575;28;20053;-65
2023/07/21 07:45:43;;;;;;;;;;;25.40;84.10;;;;;;5108782;28;19920;-66
2023/07/21 07:48:09;;;;;;;;;;;25.30;84.10;;;;;;5108343;28;19919;-66
2023/07/21 07:50:39;;;;;;;;;;;25.30;84.10;;;;;;5102180;28;19957;-66
2023/07/21 07:53:08;;;;;;;;;;;25.40;84.20;;;;;;5093920;28;19953;-68
2023/07/21 07:55:40;;;;;;;;;;;25.40;84.30;;;;;;5106595;28;19912;-66
2023/07/21 07:58:06;;;;;;;;;;;25.40;84.40;;;;;;5093773;28;20279;-66
2023/07/21 08:00:33;;;;;;;;;;;25.40;84.40;;;;;;5094230;28;19912;-67
2023/07/21 08:02:59;;;;;;;;;;;25.40;84.50;;;;;;5094644;28;19912;-66
2023/07/21 08:05:24;;;;;;;;;;;25.40;84.50;;;;;;5093687;28;19923;-65
2023/07/21 08:07:50;;;;;;;;;;;25.30;84.50;;;;;;5094687;28;19964;-68
2023/07/21 08:10:15;;;;;;;;;;;25.40;84.60;;;;;;5093835;28;20350;-68
2023/07/21 08:12:41;;;;;;;;;;;25.40;84.60;;;;;;5093731;28;19908;-67
2023/07/21 08:15:06;;;;;;;;;;;25.30;84.60;;;;;;5094010;28;19955;-66
2023/07/21 08:17:35;;;;;;;;;;;25.30;84.60;;;;;;5094172;28;19962;-66
2023/07/21 08:20:00;;;;;;;;;;;25.30;84.70;;;;;;5093833;28;19983;-67
2023/07/21 08:22:26;;;;;;;;;;;25.30;84.70;;;;;;5089008;28;19955;-67
2023/07/21 08:24:51;;;;;;;;;;;25.30;84.70;;;;;;5063024;28;19923;-69
2023/07/21 08:27:17;;;;;;;;;;;25.30;84.70;;;;;;5093518;28;19915;-67
2023/07/21 08:29:42;;;;;;;;;;;25.30;84.70;;;;;;5093852;28;20375;-67
2023/07/21 08:32:08;;;;;;;;;;;25.30;84.70;;;;;;5093763;28;19909;-67
2023/07/21 08:34:33;;;;;;;;;;;25.30;84.80;;;;;;5093860;28;19908;-67
2023/07/21 08:36:59;;;;;;;;;;;25.30;84.90;;;;;;5075711;28;20248;-67
2023/07/21 08:39:25;;;;;;;;;;;25.30;84.90;;;;;;5078691;28;20042;-65
2023/07/21 08:41:50;;;;;;;;;;;25.30;84.90;;;;;;5103833;28;19919;-66
2023/07/21 08:44:16;;;;;;;;;;;25.30;85.00;;;;;;5099729;28;20376;-67
2023/07/21 08:46:42;;;;;;;;;;;25.30;85.00;;;;;;5099895;28;19908;-67
2023/07/21 08:49:07;;;;;;;;;;;25.30;85.00;;;;;;5105199;28;20385;-67
2023/07/21 08:51:34;;;;;;;;;;;25.30;84.80;;;;;;5097492;28;20002;-69
2023/07/21 08:54:00;;;;;;;;;;;25.30;84.90;;;;;;5082608;28;20274;-71
2023/07/21 08:56:26;;;;;;;;;;;25.30;84.90;;;;;;5096327;28;19934;-67
2023/07/21 08:58:51;;;;;;;;;;;25.30;84.90;;;;;;5090965;28;19919;-67
2023/07/21 09:01:17;;;;;;;;;;;25.30;84.80;;;;;;5101237;28;19982;-66
2023/07/21 09:03:46;;;;;;;;;;;25.30;84.80;;;;;;5097789;28;19916;-67
2023/07/21 09:06:13;;;;;;;;;;;25.30;84.80;;;;;;5097140;28;19938;-67
2023/07/21 09:08:38;;;;;;;;;;;25.30;84.80;;;;;;5078920;28;19915;-67
2023/07/21 09:11:04;;;;;;;;;;;25.30;84.90;;;;;;5097131;28;19912;-68
2023/07/21 09:13:30;;;;;;;;;;;25.30;85.00;;;;;;5097503;28;19908;-66
2023/07/21 09:15:56;;;;;;;;;;;25.30;85.00;;;;;;5097998;28;19915;-67
2023/07/21 09:18:39;;;;;;;;;;;25.30;84.90;;;;;;5080783;28;20018;-68
2023/07/21 09:21:04;;;;;;;;;;;25.30;84.90;;;;;;5092028;28;19912;-67
2023/07/21 09:23:30;;;;;;;;;;;25.30;84.80;;;;;;5084895;28;20266;-67
2023/07/21 09:25:56;;;;;;;;;;;25.30;84.80;;;;;;5102876;28;19916;-66
2023/07/21 09:28:36;;;;;;;;;;;25.30;84.70;;;;;;5108358;28;19912;-68
2023/07/21 09:31:02;;;;;;;;;;;25.30;84.70;;;;;;5099250;28;19916;-67
2023/07/21 09:33:27;;;;;;;;;;;25.30;84.60;;;;;;5079359;28;19974;-67
2023/07/21 09:36:04;;;;;;;;;;;25.30;84.60;;;;;;5106630;28;20192;-66
2023/07/21 09:38:29;;;;;;;;;;;25.30;84.70;;;;;;5099649;28;19966;-67
2023/07/21 09:40:59;;;;;;;;;;;25.30;84.70;;;;;;5096719;28;19912;-66
2023/07/21 09:43:24;;;;;;;;;;;25.30;84.70;;;;;;5096535;28;19912;-67
2023/07/21 09:45:50;;;;;;;;;;;25.30;84.60;;;;;;5096968;28;19920;-67
2023/07/21 09:48:16;;;;;;;;;;;25.30;84.60;;;;;;5096395;28;19947;-66
2023/07/21 09:50:42;;;;;;;;;;;25.30;84.60;;;;;;5101439;28;20363;-68
2023/07/21 09:53:08;;;;;;;;;;;25.30;84.50;;;;;;5096800;28;19919;-68
2023/07/21 09:55:37;;;;;;;;;;;25.30;84.40;;;;;;5107781;28;19912;-68
2023/07/21 09:58:04;;;;;;;;;;;25.30;84.40;;;;;;5115165;28;19924;-67
2023/07/21 10:00:33;;;;;;;;;;;25.30;84.40;;;;;;5103972;28;19912;-68
2023/07/21 10:02:59;;;;;;;;;;;25.30;84.30;;;;;;5111134;28;20040;-68
2023/07/21 10:05:24;;;;;;;;;;;25.30;84.30;;;;;;5098714;28;20377;-67
2023/07/21 10:07:50;;;;;;;;;;;25.30;84.20;;;;;;5096705;28;19915;-69
2023/07/21 10:10:18;;;;;;;;;;;25.30;84.20;;;;;;5096079;28;19908;-68
2023/07/21 10:12:52;;;;;;;;;;;25.30;84.30;;;;;;5096633;28;20010;-68
2023/07/21 10:15:27;;;;;;;;;;;25.30;84.30;;;;;;5095003;28;20239;-68
2023/07/21 10:17:56;;;;;;;;;;;25.30;84.30;;;;;;5096456;28;19912;-67
2023/07/21 10:20:35;;;;;;;;;;;25.30;84.40;;;;;;5096001;28;19908;-68
2023/07/21 10:23:00;;;;;;;;;;;25.30;84.40;;;;;;5096146;28;20387;-66
2023/07/21 10:25:26;;;;;;;;;;;25.30;84.40;;;;;;5097540;28;19951;-67
2023/07/21 10:28:04;;;;;;;;;;;25.30;84.50;;;;;;5106346;28;20356;-62
2023/07/21 10:30:29;;;;;;;;;;;25.30;80.40;;;;;;5106754;28;19912;-65
2023/07/21 10:32:55;;;;;;;;;;;25.20;80.30;;;;;;5097609;28;19965;-66
2023/07/21 10:35:30;;;;;;;;;;;25.30;81.30;;;;;;5112226;28;20347;-66
2023/07/21 10:38:14;;;;;;;;;;;25.30;81.70;;;;;;5094733;28;20341;-66
2023/07/21 10:40:43;;;;;;;;;;;25.30;82.20;;;;;;5078312;28;19970;-66
2023/07/21 10:43:08;;;;;;;;;;;25.30;82.80;;;;;;5096792;28;20006;-65
2023/07/21 10:45:34;;;;;;;;;;;25.30;83.40;;;;;;5079331;28;19995;-67
2023/07/21 10:48:12;;;;;;;;;;;25.30;83.60;;;;;;5095279;28;19934;-65
2023/07/21 10:50:40;;;;;;;;;;;25.30;83.60;;;;;;5093338;28;19950;-65
2023/07/21 10:53:06;;;;;;;;;;;25.30;83.70;;;;;;5101613;28;19934;-65
2023/07/21 10:55:31;;;;;;;;;;;25.30;83.80;;;;;;5095389;28;19909;-65
2023/07/21 10:57:57;;;;;;;;;;;25.30;83.80;;;;;;5077197;28;19920;-65
2023/07/21 11:00:22;;;;;;;;;;;25.30;83.90;;;;;;5094466;28;19990;-66
2023/07/21 11:02:54;;;;;;;;;;;25.30;83.90;;;;;;5094595;28;19998;-66
2023/07/21 11:05:21;;;;;;;;;;;25.30;84.00;;;;;;5077052;28;19959;-65
2023/07/21 11:07:48;;;;;;;;;;;25.30;84.10;;;;;;5094690;28;20363;-66
2023/07/21 11:10:14;;;;;;;;;;;25.30;84.10;;;;;;5094883;28;20421;-64
2023/07/21 11:12:40;;;;;;;;;;;25.30;84.10;;;;;;5094919;28;19908;-65
2023/07/21 11:15:08;;;;;;;;;;;25.30;84.20;;;;;;5094881;28;19953;-65
2023/07/21 11:17:34;;;;;;;;;;;25.30;84.30;;;;;;5094504;28;20271;-65
2023/07/21 11:20:06;;;;;;;;;;;25.30;84.40;;;;;;5094848;28;19908;-66
2023/07/21 11:22:33;;;;;;;;;;;25.30;84.40;;;;;;5076049;28;19909;-65
2023/07/21 11:25:10;;;;;;;;;;;25.30;84.40;;;;;;5093925;28;20311;-65
2023/07/21 11:27:36;;;;;;;;;;;25.30;84.50;;;;;;5094201;28;19912;-67
2023/07/21 11:30:02;;;;;;;;;;;25.30;84.60;;;;;;5094665;28;20375;-65
2023/07/21 11:32:27;;;;;;;;;;;25.30;84.60;;;;;;5076655;28;20017;-65
2023/07/21 11:34:56;;;;;;;;;;;25.30;84.70;;;;;;5094208;28;20355;-65
2023/07/21 11:37:22;;;;;;;;;;;25.30;84.70;;;;;;5094323;28;20458;-65
2023/07/21 11:39:54;;;;;;;;;;;25.30;84.60;;;;;;5094094;28;19939;-65
2023/07/21 11:42:19;;;;;;;;;;;25.20;84.60;;;;;;5094208;28;20389;-65
2023/07/21 11:44:45;;;;;;;;;;;25.30;84.70;;;;;;5094113;28;19919;-65
2023/07/21 11:47:12;;;;;;;;;;;25.30;84.70;;;;;;5094443;28;19934;-66
2023/07/21 11:49:38;;;;;;;;;;;25.20;84.60;;;;;;5094321;28;20270;-65
2023/07/21 11:52:05;;;;;;;;;;;25.30;84.80;;;;;;5094726;28;19908;-65
2023/07/21 11:54:49;;;;;;;;;;;25.30;84.70;;;;;;5094295;28;19908;-64
2023/07/21 11:57:14;;;;;;;;;;;25.30;84.70;;;;;;5094170;28;19912;-66
2023/07/21 11:59:40;;;;;;;;;;;25.30;84.70;;;;;;5094129;28;19913;-67
2023/07/21 12:02:06;;;;;;;;;;;25.20;84.70;;;;;;5094058;28;20207;-67
2023/07/21 12:04:32;;;;;;;;;;;25.20;84.70;;;;;;5094161;28;19912;-66
2023/07/21 12:06:58;;;;;;;;;;;25.30;84.80;;;;;;5094229;28;19919;-65
2023/07/21 12:09:23;;;;;;;;;;;25.30;84.70;;;;;;5093428;28;19995;-65
2023/07/21 12:11:49;;;;;;;;;;;25.30;84.80;;;;;;5093603;28;19930;-66
2023/07/21 12:14:15;;;;;;;;;;;25.30;84.90;;;;;;5094181;28;19934;-65
2023/07/21 12:16:40;;;;;;;;;;;25.30;84.90;;;;;;5094132;28;20243;-66
2023/07/21 12:19:06;;;;;;;;;;;25.30;84.90;;;;;;5093720;28;20351;-65
2023/07/21 12:21:32;;;;;;;;;;;25.30;84.80;;;;;;5093429;28;20006;-64
2023/07/21 12:23:57;;;;;;;;;;;25.30;84.90;;;;;;5093413;28;19916;-66
2023/07/21 12:26:23;;;;;;;;;;;25.30;84.90;;;;;;5093656;28;19916;-66
2023/07/21 12:28:50;;;;;;;;;;;25.30;84.90;;;;;;5093415;28;20366;-66
2023/07/21 12:31:16;;;;;;;;;;;25.30;84.80;;;;;;5075519;28;19908;-65
2023/07/21 12:33:42;;;;;;;;;;;25.30;84.90;;;;;;5075671;28;19912;-66
2023/07/21 12:36:09;;;;;;;;;;;25.20;84.90;;;;;;5093581;28;20046;-65
2023/07/21 12:38:34;;;;;;;;;;;25.30;85.00;;;;;;5093866;28;19909;-66
2023/07/21 12:41:00;;;;;;;;;;;25.30;85.00;;;;;;5075524;28;19915;-66
2023/07/21 12:43:25;;;;;;;;;;;25.30;85.00;;;;;;5093528;28;19908;-67
2023/07/21 12:45:51;;;;;;;;;;;25.30;84.90;;;;;;5074723;28;20050;-66
2023/07/21 12:48:16;;;;;;;;;;;25.20;84.90;;;;;;5075260;28;19912;-67
2023/07/21 12:50:42;;;;;;;;;;;25.20;85.00;;;;;;5093569;28;19912;-66
2023/07/21 12:53:07;;;;;;;;;;;25.20;84.90;;;;;;5075023;28;19960;-65
2023/07/21 12:55:33;;;;;;;;;;;25.20;84.80;;;;;;5093036;28;20378;-65
2023/07/21 12:57:59;;;;;;;;;;;25.20;84.80;;;;;;5093549;28;19954;-66
2023/07/21 13:00:25;;;;;;;;;;;25.20;84.90;;;;;;5075367;28;20313;-66
2023/07/21 13:02:50;;;;;;;;;;;25.20;84.90;;;;;;5093466;28;19908;-66
2023/07/21 13:05:16;;;;;;;;;;;25.20;84.80;;;;;;5093247;28;19916;-66
2023/07/21 13:07:44;;;;;;;;;;;25.20;84.90;;;;;;5093452;28;19908;-66
2023/07/21 13:10:09;;;;;;;;;;;25.20;84.90;;;;;;5093513;28;20307;-66
2023/07/21 13:12:35;;;;;;;;;;;25.20;84.90;;;;;;5091168;28;19997;-52
2023/07/21 13:15:02;;;;;;;;;;;25.20;84.60;;;;;;5093341;28;19912;-49
2023/07/21 13:17:27;;;;;;;;;;;25.20;84.70;;;;;;5074881;28;19919;-50
2023/07/21 13:19:53;;;;;;;;;;;25.20;84.80;;;;;;5093057;28;19912;-51
2023/07/21 13:22:18;;;;;;;;;;;25.20;84.90;;;;;;5093259;28;19927;-50
2023/07/21 13:24:44;;;;;;;;;;;25.20;82.80;;;;;;5076368;28;20434;-53
2023/07/21 13:27:09;;;;;;;;;;;25.20;82.10;;;;;;5103974;28;19993;-52
2023/07/21 13:29:35;;;;;;;;;;;25.20;81.90;;;;;;5077908;28;20296;-53
2023/07/21 13:32:00;;;;;;;;;;;25.20;81.80;;;;;;5103638;28;19943;-52
2023/07/21 13:34:26;;;;;;;;;;;25.10;81.70;;;;;;5110648;28;20267;-50
2023/07/21 13:36:52;;;;;;;;;;;25.10;81.80;;;;;;5096578;28;19920;-50
2023/07/21 13:39:17;;;;;;;;;;;25.10;81.90;;;;;;5109100;28;19919;-49
2023/07/21 13:41:44;;;;;;;;;;;25.10;81.90;;;;;;5095971;28;20039;-50
2023/07/21 13:44:09;;;;;;;;;;;25.10;81.90;;;;;;5096221;28;20020;-51
2023/07/21 13:46:35;;;;;;;;;;;25.10;81.90;;;;;;5078293;28;20007;-53
2023/07/21 13:49:00;;;;;;;;;;;25.10;82.00;;;;;;5096790;28;19915;-52
2023/07/21 13:51:26;;;;;;;;;;;25.10;82.20;;;;;;5096212;28;19912;-52
2023/07/21 13:53:51;;;;;;;;;;;25.10;82.20;;;;;;5097557;28;19916;-48
2023/07/21 13:56:18;;;;;;;;;;;25.10;82.50;;;;;;5115761;28;19988;-52
2023/07/21 13:58:43;;;;;;;;;;;25.10;82.90;;;;;;5108157;28;19916;-50
2023/07/21 14:01:09;;;;;;;;;;;25.10;83.10;;;;;;5100896;28;19912;-53
2023/07/21 14:03:34;;;;;;;;;;;25.10;83.30;;;;;;5114476;28;19908;-49
2023/07/21 14:06:00;;;;;;;;;;;25.10;83.50;;;;;;5090334;28;20314;-49
2023/07/21 14:08:25;;;;;;;;;;;25.10;83.60;;;;;;5107340;28;20271;-50
2023/07/21 14:10:51;;;;;;;;;;;25.10;83.70;;;;;;5095788;28;19908;-51